Time;durP1;ratioP1;P1;durP2;ratioP2;P2;SDS_P1;SDS_P2;PMS_P1;PMS_P2;Temp;Humidity;BMP_temperature;BMP_pressure;BME280_temperature;BME280_humidity;BME280_pressure;Samples;Min_cycle;Max_cycle;Signal;HPM_P1;HPM_P2
2021/07/23 00:00:00;;;;;;;0.40;0.40;;;;;;;17.07;69.47;97066.69;29395;315;63009;-64
2021/07/23 00:00:31;;;;;;;0.40;0.40;;;;;;;17.06;68.88;97067.81;29395;217;63004;-69
2021/07/23 00:01:04;;;;;;;0.40;0.40;;;;;;;17.05;69.18;97069.75;29395;309;63009;-64
2021/07/23 00:01:36;;;;;;;0.40;0.40;;;;;;;17.05;69.10;97066.22;29395;241;63004;-69
2021/07/23 00:02:07;;;;;;;0.40;0.40;;;;;;;17.06;69.04;97070.56;29395;335;63009;-71
2021/07/23 00:02:38;;;;;;;0.40;0.40;;;;;;;17.05;69.12;97060.72;29394;291;64009;-70
2021/07/23 00:03:09;;;;;;;0.40;0.40;;;;;;;17.04;69.36;97067.34;29395;218;63008;-65
2021/07/23 00:03:42;;;;;;;0.40;0.40;;;;;;;17.04;69.16;97067.34;29395;202;63004;-69
2021/07/23 00:04:14;;;;;;;0.40;0.40;;;;;;;17.03;68.91;97068.47;29395;224;63009;-69
2021/07/23 00:04:47;;;;;;;0.40;0.40;;;;;;;17.03;69.04;97057.50;29395;199;63005;-70
2021/07/23 00:05:18;;;;;;;0.40;0.40;;;;;;;17.02;69.16;97075.09;29395;231;63009;-64
2021/07/23 00:05:49;;;;;;;0.40;0.40;;;;;;;17.01;69.21;97070.75;29395;227;63005;-63
2021/07/23 00:06:20;;;;;;;0.68;0.68;;;;;;;17.00;69.55;97066.37;29395;229;63009;-69
2021/07/23 00:06:51;;;;;;;0.40;0.40;;;;;;;16.96;70.09;97066.28;29395;363;63009;-69
2021/07/23 00:07:23;;;;;;;0.40;0.40;;;;;;;16.93;70.54;97069.66;29395;314;63009;-63
2021/07/23 00:07:54;;;;;;;0.62;0.62;;;;;;;16.88;70.27;97066.31;29394;199;64009;-65
2021/07/23 00:08:25;;;;;;;0.40;0.40;;;;;;;16.86;70.11;97060.34;29395;224;63009;-69
2021/07/23 00:08:56;;;;;;;0.40;0.40;;;;;;;16.84;70.29;97074.37;29395;211;63004;-70
2021/07/23 00:09:29;;;;;;;0.40;0.40;;;;;;;16.83;70.13;97067.28;29395;234;63009;-63
2021/07/23 00:10:00;;;;;;;0.40;0.40;;;;;;;16.83;70.21;97071.97;29395;206;63004;-69
2021/07/23 00:10:32;;;;;;;0.40;0.40;;;;;;;16.83;70.23;97063.75;29395;237;63009;-63
2021/07/23 00:11:03;;;;;;;0.40;0.40;;;;;;;16.82;70.52;97067.63;29395;265;63004;-64
2021/07/23 00:11:36;;;;;;;0.40;0.40;;;;;;;16.80;70.47;97067.13;29395;283;63009;-70
2021/07/23 00:12:10;;;;;;;0.40;0.40;;;;;;;16.80;71.52;97067.13;29395;222;63005;-71
2021/07/23 00:12:41;;;;;;;0.40;0.40;;;;;;;16.78;72.33;97061.19;29394;219;64014;-62
2021/07/23 00:13:12;;;;;;;0.40;0.40;;;;;;;16.73;71.85;97068.44;29395;216;63005;-69
2021/07/23 00:13:43;;;;;;;0.40;0.40;;;;;;;16.73;72.01;97068.44;29395;196;63009;-70
2021/07/23 00:14:14;;;;;;;0.40;0.40;;;;;;;16.70;72.16;97063.62;29395;237;63005;-70
2021/07/23 00:14:45;;;;;;;0.40;0.40;;;;;;;16.67;71.43;97058.78;29395;210;63009;-62
2021/07/23 00:15:17;;;;;;;0.60;0.60;;;;;;;16.68;71.53;97063.12;29395;285;63005;-64
2021/07/23 00:15:48;;;;;;;0.40;0.40;;;;;;;16.69;71.18;97063.94;29395;204;63009;-70
2021/07/23 00:16:19;;;;;;;0.40;0.40;;;;;;;16.69;71.07;97055.72;29395;285;63004;-63
2021/07/23 00:16:50;;;;;;;0.40;0.40;;;;;;;16.70;70.68;97060.88;29395;203;63009;-64
2021/07/23 00:17:22;;;;;;;0.40;0.40;;;;;;;16.73;70.79;97064.91;29395;278;63004;-70
2021/07/23 00:17:53;;;;;;;0.30;0.30;;;;;;;16.73;70.82;97056.69;29394;212;64029;-71
2021/07/23 00:18:24;;;;;;;0.40;0.40;;;;;;;16.74;70.51;97059.09;29395;272;63004;-70
2021/07/23 00:18:56;;;;;;;0.40;0.40;;;;;;;16.74;70.77;97059.09;29395;196;63008;-64
2021/07/23 00:19:27;;;;;;;0.37;0.37;;;;;;;16.74;70.47;97061.84;29395;228;63005;-63
2021/07/23 00:19:58;;;;;;;0.40;0.40;;;;;;;16.73;70.72;97057.47;29395;232;63009;-69
2021/07/23 00:20:31;;;;;;;0.40;0.40;;;;;;;16.74;70.62;97059.09;29395;394;63005;-70
2021/07/23 00:21:02;;;;;;;0.40;0.40;;;;;;;16.73;70.78;97062.16;29395;296;63018;-69
2021/07/23 00:21:33;;;;;;;0.40;0.40;;;;;;;16.73;70.82;97056.69;29395;221;63005;-69
2021/07/23 00:22:04;;;;;;;0.40;0.40;;;;;;;16.71;71.04;97062.50;29395;231;63009;-64
2021/07/23 00:22:35;;;;;;;0.37;0.37;;;;;;;16.70;71.32;97058.13;29394;301;64009;-69
2021/07/23 00:23:07;;;;;;;0.40;0.40;;;;;;;16.67;71.34;97056.06;29395;282;63009;-70
2021/07/23 00:23:38;;;;;;;0.40;0.40;;;;;;;16.66;71.05;97062.66;29394;275;64009;-69
2021/07/23 00:24:09;;;;;;;0.40;0.40;;;;;;;16.65;71.58;97061.06;29395;198;63009;-70
2021/07/23 00:24:43;;;;;;;0.40;0.40;;;;;;;16.61;71.47;97062.84;29395;197;63004;-63
2021/07/23 00:25:15;;;;;;;0.40;0.40;;;;;;;16.59;71.83;97061.56;29395;232;63008;-64
2021/07/23 00:25:46;;;;;;;0.40;0.40;;;;;;;16.55;71.65;97064.13;29395;234;63004;-70
2021/07/23 00:26:19;;;;;;;0.40;0.40;;;;;;;16.53;71.96;97066.41;29395;203;63008;-70
2021/07/23 00:26:54;;;;;;;0.40;0.40;;;;;;;16.53;71.72;97057.38;29395;220;63005;-70
2021/07/23 00:27:27;;;;;;;0.50;0.50;;;;;;;16.55;71.38;97061.41;29394;331;64013;-63
2021/07/23 00:27:58;;;;;;;0.40;0.40;;;;;;;16.57;71.36;97061.88;29395;207;63005;-69
2021/07/23 00:28:29;;;;;;;1.25;0.70;;;;;;;16.59;70.95;97051.41;29395;203;63009;-70
2021/07/23 00:29:00;;;;;;;0.40;0.40;;;;;;;16.62;70.99;97058.16;29395;206;63005;-64
2021/07/23 00:29:32;;;;;;;0.40;0.40;;;;;;;16.63;70.65;97063.28;29395;220;63009;-70
2021/07/23 00:30:08;;;;;;;0.40;0.40;;;;;;;16.65;70.73;97061.06;29395;216;63004;-63
2021/07/23 00:30:41;;;;;;;0.40;0.40;;;;;;;16.67;70.63;97058.78;29395;283;63009;-71
2021/07/23 00:31:13;;;;;;;0.40;0.40;;;;;;;16.68;70.52;97059.59;29395;218;63004;-71
2021/07/23 00:31:44;;;;;;;0.40;0.40;;;;;;;16.69;70.51;97062.00;29395;197;63009;-65
2021/07/23 00:32:15;;;;;;;0.50;0.50;;;;;;;16.70;70.34;97057.34;29395;269;63004;-64
2021/07/23 00:32:50;;;;;;;0.40;0.40;;;;;;;16.70;70.82;97055.41;29394;375;64013;-63
2021/07/23 00:33:21;;;;;;;0.40;0.40;;;;;;;16.69;71.38;97056.53;29395;212;63005;-64
2021/07/23 00:33:52;;;;;;;0.40;0.40;;;;;;;16.68;71.40;97057.66;29395;380;63009;-65
2021/07/23 00:34:24;;;;;;;0.45;0.45;;;;;;;16.65;71.52;97061.06;29394;199;64005;-70
2021/07/23 00:34:56;;;;;;;0.40;0.40;;;;;;;16.61;71.70;97065.56;29394;212;64013;-70
2021/07/23 00:35:28;;;;;;;0.50;0.50;;;;;;;16.59;71.84;97059.63;29395;215;63005;-69
2021/07/23 00:36:01;;;;;;;0.40;0.40;;;;;;;16.57;72.50;97058.34;29395;226;63009;-63
2021/07/23 00:36:32;;;;;;;0.40;0.40;;;;;;;16.54;72.89;97057.06;29395;227;63019;-69
2021/07/23 00:37:04;;;;;;;0.40;0.40;;;;;;;16.53;72.62;97057.38;29395;197;63009;-69
2021/07/23 00:37:35;;;;;;;0.40;0.40;;;;;;;16.53;71.80;97055.44;29395;227;63004;-70
2021/07/23 00:38:06;;;;;;;0.40;0.40;;;;;;;16.53;71.96;97052.72;29394;216;64013;-65
2021/07/23 00:38:37;;;;;;;0.40;0.40;;;;;;;16.55;71.56;97061.41;29395;211;63004;-64
2021/07/23 00:39:08;;;;;;;0.40;0.40;;;;;;;16.50;71.14;97047.06;29395;207;63009;-69
2021/07/23 00:39:40;;;;;;;0.50;0.50;;;;;;;16.58;71.59;97052.53;29395;220;63004;-69
2021/07/23 00:40:12;;;;;;;0.40;0.40;;;;;;;16.58;71.27;97052.53;29395;213;63008;-64
2021/07/23 00:40:43;;;;;;;0.50;0.50;;;;;;;16.58;71.02;97049.78;29395;294;63004;-70
2021/07/23 00:41:14;;;;;;;0.50;0.50;;;;;;;16.59;71.09;97053.34;29395;218;63009;-63
2021/07/23 00:41:45;;;;;;;0.40;0.40;;;;;;;16.58;71.69;97047.06;29395;371;63005;-70
2021/07/23 00:42:17;;;;;;;0.40;0.40;;;;;;;16.59;71.47;97056.06;29394;344;64014;-63
2021/07/23 00:42:48;;;;;;;0.40;0.40;;;;;;;16.58;71.42;97054.47;29395;234;63005;-63
2021/07/23 00:43:19;;;;;;;0.40;0.40;;;;;;;16.56;71.75;97051.25;29396;237;63005;-64
2021/07/23 00:43:50;;;;;;;0.45;0.45;;;;;;;16.55;71.65;97055.91;29395;261;63005;-71
2021/07/23 00:44:21;;;;;;;0.40;0.40;;;;;;;16.54;71.92;97059.78;29395;206;63009;-69
2021/07/23 00:44:53;;;;;;;0.40;0.40;;;;;;;16.52;72.35;97055.78;29395;314;63005;-70
2021/07/23 00:45:24;;;;;;;0.47;0.47;;;;;;;16.48;72.33;97050.13;29395;220;63009;-64
2021/07/23 00:45:56;;;;;;;0.50;0.50;;;;;;;16.48;72.31;97055.62;29395;208;63004;-69
2021/07/23 00:46:30;;;;;;;0.40;0.40;;;;;;;16.46;72.20;97059.81;29395;231;63009;-65
2021/07/23 00:47:03;;;;;;;0.40;0.40;;;;;;;16.46;72.27;97051.59;29395;260;63017;-69
2021/07/23 00:47:39;;;;;;;0.40;0.40;;;;;;;16.46;71.87;97052.41;29394;205;64013;-65
2021/07/23 00:48:12;;;;;;;0.40;0.40;;;;;;;16.47;71.92;97054.00;29394;203;64008;-71
2021/07/23 00:48:43;;;;;;;0.47;0.47;;;;;;;16.45;73.06;97056.25;29395;230;63009;-64
2021/07/23 00:49:16;;;;;;;0.40;0.40;;;;;;;16.42;72.46;97052.25;29395;210;63005;-64
2021/07/23 00:49:48;;;;;;;0.40;0.40;;;;;;;16.42;73.02;97045.97;29395;227;63012;-64
2021/07/23 00:50:20;;;;;;;0.40;0.40;;;;;;;16.42;72.72;97048.69;29395;216;63005;-63
2021/07/23 00:50:52;;;;;;;0.50;0.50;;;;;;;16.38;72.70;97045.00;29395;218;63009;-64
2021/07/23 00:51:23;;;;;;;0.40;0.40;;;;;;;16.34;72.93;97047.59;29395;209;63005;-70
2021/07/23 00:51:54;;;;;;;0.40;0.40;;;;;;;16.34;72.98;97055.00;29395;214;63009;-71
2021/07/23 00:52:27;;;;;;;7.40;7.10;;;;;;;16.34;72.70;97055.00;29395;214;63005;-63
2021/07/23 00:52:58;;;;;;;0.40;0.40;;;;;;;16.35;72.70;97049.19;29394;291;64013;-71
2021/07/23 00:53:30;;;;;;;0.40;0.40;;;;;;;16.36;72.62;97047.25;29394;218;64009;-70
2021/07/23 00:54:03;;;;;;;0.40;0.40;;;;;;;16.34;72.31;97038.56;29395;348;63009;-63
2021/07/23 00:54:34;;;;;;;0.50;0.50;;;;;;;16.32;72.43;97047.09;29395;203;63004;-64
2021/07/23 00:55:08;;;;;;;1.40;1.30;;;;;;;16.31;72.99;97047.44;29395;212;63008;-65
2021/07/23 00:55:42;;;;;;;0.40;0.40;;;;;;;16.28;72.77;97045.38;29395;210;63004;-69
2021/07/23 00:56:14;;;;;;;0.40;0.40;;;;;;;16.28;72.76;97050.84;29394;354;64014;-63
2021/07/23 00:56:50;;;;;;;0.40;0.40;;;;;;;16.28;72.99;97048.09;29395;236;63005;-71
2021/07/23 00:57:22;;;;;;;0.40;0.40;;;;;;;16.29;72.47;97042.28;29395;256;63009;-65
2021/07/23 00:57:59;;;;;;;0.40;0.40;;;;;;;16.31;72.41;97047.44;29395;224;63005;-65
2021/07/23 00:58:30;;;;;;;0.40;0.40;;;;;;;16.33;72.05;97040.50;29394;285;64013;-70
2021/07/23 00:59:02;;;;;;;0.40;0.40;;;;;;;16.35;72.12;97043.72;29395;258;63005;-70
2021/07/23 00:59:34;;;;;;;0.43;0.43;;;;;;;16.38;72.11;97039.53;29395;202;63009;-70
2021/07/23 01:00:07;;;;;;;0.40;0.40;;;;;;;16.39;71.82;97046.63;29394;221;64009;-65
2021/07/23 01:00:40;;;;;;;0.40;0.40;;;;;;;16.40;71.84;97048.22;29395;203;63009;-70
2021/07/23 01:01:11;;;;;;;0.40;0.40;;;;;;;16.41;71.70;97045.16;29395;226;63004;-63
2021/07/23 01:01:44;;;;;;;0.40;0.40;;;;;;;16.42;71.70;97041.28;29395;238;63025;-64
2021/07/23 01:02:15;;;;;;;0.40;0.40;;;;;;;16.43;71.77;97045.63;29395;208;63004;-69
2021/07/23 01:02:48;;;;;;;0.40;0.40;;;;;;;16.44;71.98;97040.97;29394;201;64027;-69
2021/07/23 01:03:21;;;;;;;0.40;0.40;;;;;;;16.41;71.92;97038.88;29395;239;63004;-63
2021/07/23 01:03:53;;;;;;;0.40;0.40;;;;;;;16.40;72.71;97043.56;29395;223;63009;-64
2021/07/23 01:04:26;;;;;;;0.40;0.40;;;;;;;16.38;73.23;97040.34;29395;319;63010;-63
2021/07/23 01:04:58;;;;;;;0.40;0.40;;;;;;;16.36;73.19;97036.31;29394;216;64014;-64
2021/07/23 01:05:29;;;;;;;0.40;0.40;;;;;;;16.33;73.29;97039.69;29395;262;63005;-65
2021/07/23 01:06:02;;;;;;;0.40;0.40;;;;;;;16.33;73.38;97042.44;29395;220;63009;-69
2021/07/23 01:06:35;;;;;;;0.40;0.40;;;;;;;16.30;73.26;97043.09;29395;230;63010;-65
2021/07/23 01:07:07;;;;;;;0.40;0.40;;;;;;;16.31;72.44;97041.94;29395;235;63009;-63
2021/07/23 01:07:38;;;;;;;0.40;0.40;;;;;;;16.33;72.40;97036.97;29395;251;63004;-70
2021/07/23 01:08:12;;;;;;;0.40;0.40;;;;;;;16.37;72.27;97040.66;29394;229;64005;-69
2021/07/23 01:08:44;;;;;;;0.40;0.40;;;;;;;16.39;72.15;97041.94;29394;210;64009;-70
2021/07/23 01:09:16;;;;;;;0.40;0.40;;;;;;;16.41;71.91;97038.88;29395;333;63009;-65
2021/07/23 01:09:48;;;;;;;0.40;0.40;;;;;;;16.42;71.79;97046.78;29395;349;63004;-65
2021/07/23 01:10:21;;;;;;;0.40;0.40;;;;;;;16.43;71.67;97042.09;29395;244;63008;-71
2021/07/23 01:10:52;;;;;;;0.40;0.40;;;;;;;16.42;71.77;97041.28;29395;308;63004;-69
2021/07/23 01:11:25;;;;;;;0.40;0.40;;;;;;;16.42;71.93;97041.28;29395;238;63009;-70
2021/07/23 01:11:56;;;;;;;0.40;0.40;;;;;;;16.41;71.91;97038.88;29395;352;63017;-70
2021/07/23 01:12:35;;;;;;;0.40;0.40;;;;;;;16.37;72.30;97040.66;29395;214;63009;-69
2021/07/23 01:13:06;;;;;;;0.40;0.40;;;;;;;16.32;73.00;97040.81;29395;198;63005;-70
2021/07/23 01:13:42;;;;;;;0.40;0.40;;;;;;;16.29;73.41;97041.47;29394;205;64013;-64
2021/07/23 01:14:13;;;;;;;0.40;0.40;;;;;;;16.27;73.11;97035.56;29395;279;63011;-71
2021/07/23 01:14:45;;;;;;;0.40;0.40;;;;;;;16.26;72.75;97042.16;29395;328;63009;-71
2021/07/23 01:15:17;;;;;;;0.40;0.40;;;;;;;16.27;72.51;97044.56;29395;281;63004;-70
2021/07/23 01:15:49;;;;;;;0.40;0.40;;;;;;;16.30;72.29;97037.59;29395;206;63009;-63
2021/07/23 01:16:21;;;;;;;0.40;0.40;;;;;;;16.32;72.08;97036.16;29395;208;63004;-70
2021/07/23 01:16:54;;;;;;;0.40;0.40;;;;;;;16.35;72.09;97034.69;29395;198;63020;-66
2021/07/23 01:17:26;;;;;;;0.45;0.45;;;;;;;16.35;71.83;97040.97;29395;294;63004;-69
2021/07/23 01:17:57;;;;;;;0.40;0.40;;;;;;;16.37;71.85;97037.91;29395;197;63008;-64
2021/07/23 01:18:30;;;;;;;0.40;0.40;;;;;;;16.37;71.90;97038.72;29395;196;63004;-64
2021/07/23 01:19:01;;;;;;;0.40;0.40;;;;;;;16.39;71.73;97039.19;29394;226;64014;-64
2021/07/23 01:19:45;;;;;;;0.40;0.40;;;;;;;16.39;71.82;97041.94;29395;258;63005;-70
2021/07/23 01:20:21;;;;;;;0.40;0.40;;;;;;;16.39;72.01;97036.47;29394;227;64013;-70
2021/07/23 01:20:53;;;;;;;1.12;1.12;;;;;;;16.38;71.81;97045.00;29395;228;63005;-65
2021/07/23 01:21:27;;;;;;;0.40;0.40;;;;;;;16.38;72.10;97037.59;29395;226;63009;-63
2021/07/23 01:22:02;;;;;;;0.40;0.40;;;;;;;16.36;72.13;97036.31;29395;277;63007;-65
2021/07/23 01:22:35;;;;;;;0.40;0.40;;;;;;;16.34;72.08;97033.91;29395;198;63009;-63
2021/07/23 01:23:08;;;;;;;0.52;0.52;;;;;;;16.35;71.86;97037.44;29395;203;63004;-70
2021/07/23 01:23:41;;;;;;;0.40;0.40;;;;;;;16.36;71.56;97031.62;29395;202;63009;-64
2021/07/23 01:24:14;;;;;;;0.40;0.40;;;;;;;16.37;71.64;97038.72;29395;205;63015;-66
2021/07/23 01:24:46;;;;;;;0.40;0.40;;;;;;;16.38;71.60;97034.84;29395;203;63026;-69
2021/07/23 01:25:21;;;;;;;0.40;0.40;;;;;;;16.39;71.74;97039.19;29394;223;64008;-65
2021/07/23 01:25:53;;;;;;;0.40;0.40;;;;;;;16.40;72.02;97031.78;29395;267;63008;-65
2021/07/23 01:26:25;;;;;;;0.40;0.40;;;;;;;16.38;72.67;97034.06;29395;197;63010;-64
2021/07/23 01:26:56;;;;;;;0.77;0.77;;;;;;;16.34;72.74;97036.63;29395;217;63005;-71
2021/07/23 01:27:31;;;;;;;0.30;0.30;;;;;;;16.33;72.53;97036.97;29395;215;63005;-69
2021/07/23 01:28:05;;;;;;;0.40;0.40;;;;;;;16.33;72.56;97031.47;29395;202;63009;-71
2021/07/23 01:28:37;;;;;;;0.30;0.30;;;;;;;16.32;73.13;97040.81;29395;247;63005;-70
2021/07/23 01:29:09;;;;;;;0.40;0.40;;;;;;;16.31;72.98;97033.75;29395;245;63015;-70
2021/07/23 01:29:40;;;;;;;0.40;0.40;;;;;;;16.31;72.35;97040.03;29395;338;63004;-63
2021/07/23 01:30:14;;;;;;;0.40;0.40;;;;;;;16.33;72.23;97037.75;29395;202;63009;-70
2021/07/23 01:30:46;;;;;;;0.40;0.40;;;;;;;16.35;72.40;97034.69;29394;254;64009;-69
2021/07/23 01:31:17;;;;;;;0.40;0.40;;;;;;;16.33;73.07;97042.44;29395;218;63009;-64
2021/07/23 01:31:48;;;;;;;0.40;0.40;;;;;;;16.30;73.08;97040.34;29395;207;63004;-70
2021/07/23 01:32:19;;;;;;;0.43;0.43;;;;;;;16.30;72.61;97038.41;29395;210;63008;-70
2021/07/23 01:32:52;;;;;;;0.40;0.40;;;;;;;16.32;72.62;97038.09;29395;243;63004;-63
2021/07/23 01:33:23;;;;;;;0.40;0.40;;;;;;;16.33;72.53;97036.97;29395;326;63004;-64
2021/07/23 01:33:55;;;;;;;0.40;0.40;;;;;;;16.33;73.07;97032.28;29394;202;64009;-70
2021/07/23 01:34:26;;;;;;;0.40;0.40;;;;;;;16.33;72.37;97032.28;29394;203;64012;-65
2021/07/23 01:34:57;;;;;;;0.40;0.40;;;;;;;16.35;72.24;97035.50;29395;315;63005;-64
2021/07/23 01:35:29;;;;;;;0.40;0.40;;;;;;;16.36;72.15;97033.56;29395;314;63009;-70
2021/07/23 01:36:01;;;;;;;0.40;0.40;;;;;;;16.36;72.59;97039.84;29395;288;63005;-70
2021/07/23 01:36:32;;;;;;;0.40;0.40;;;;;;;16.37;72.00;97037.91;29395;192;63016;-69
2021/07/23 01:37:04;;;;;;;0.40;0.40;;;;;;;16.38;72.08;97036.78;29395;222;63012;-65
2021/07/23 01:37:37;;;;;;;0.40;0.40;;;;;;;16.38;72.20;97034.84;29395;213;63009;-69
2021/07/23 01:38:09;;;;;;;0.40;0.40;;;;;;;16.38;72.82;97034.84;29395;231;63004;-70
2021/07/23 01:38:44;;;;;;;0.40;0.40;;;;;;;16.38;72.78;97039.53;29395;253;63009;-65
2021/07/23 01:39:18;;;;;;;0.40;0.40;;;;;;;16.38;72.19;97031.31;29394;255;64009;-70
2021/07/23 01:39:51;;;;;;;0.40;0.40;;;;;;;16.38;72.17;97036.78;29395;211;63022;-65
2021/07/23 01:40:23;;;;;;;0.40;0.40;;;;;;;16.39;72.34;97032.91;29395;202;63016;-64
2021/07/23 01:40:56;;;;;;;0.40;0.40;;;;;;;16.40;72.05;97027.13;29395;266;63009;-71
2021/07/23 01:41:28;;;;;;;0.40;0.40;;;;;;;16.42;71.95;97026.78;29395;197;63005;-70
2021/07/23 01:41:59;;;;;;;0.40;0.40;;;;;;;16.45;71.80;97031.62;29394;257;64013;-68
2021/07/23 01:42:33;;;;;;;0.40;0.40;;;;;;;16.48;71.71;97030.97;29395;256;63012;-70
2021/07/23 01:43:05;;;;;;;0.40;0.40;;;;;;;16.47;71.75;97025.81;29395;198;63013;-64
2021/07/23 01:43:38;;;;;;;0.40;0.40;;;;;;;16.48;72.03;97030.97;29394;223;64009;-64
2021/07/23 01:44:09;;;;;;;0.40;0.40;;;;;;;16.46;72.00;97025.00;29395;197;63009;-66
2021/07/23 01:44:41;;;;;;;0.40;0.40;;;;;;;16.47;71.72;97029.34;29395;210;63006;-69
2021/07/23 01:45:12;;;;;;;0.40;0.40;;;;;;;16.46;71.73;97030.50;29395;270;63009;-69
2021/07/23 01:45:43;;;;;;;0.45;0.45;;;;;;;16.46;72.27;97030.50;29395;222;63004;-71
2021/07/23 01:46:15;;;;;;;0.40;0.40;;;;;;;16.46;72.24;97029.69;29395;220;63013;-64
2021/07/23 01:46:47;;;;;;;0.40;0.40;;;;;;;16.46;71.94;97035.16;29395;221;63004;-66
2021/07/23 01:47:19;;;;;;;0.40;0.40;;;;;;;16.46;71.79;97030.50;29395;199;63018;-70
2021/07/23 01:47:53;;;;;;;0.40;0.40;;;;;;;16.48;71.44;97032.91;29394;274;64008;-65
2021/07/23 01:48:24;;;;;;;0.40;0.40;;;;;;;16.49;71.40;97029.84;29395;202;63009;-70
2021/07/23 01:48:56;;;;;;;0.40;0.40;;;;;;;16.50;71.82;97028.72;29395;204;63005;-69
2021/07/23 01:49:27;;;;;;;0.40;0.40;;;;;;;16.48;72.12;97032.91;29395;217;63009;-70
2021/07/23 01:49:58;;;;;;;0.40;0.40;;;;;;;16.45;72.37;97037.09;29395;214;63005;-70
2021/07/23 01:50:30;;;;;;;0.40;0.40;;;;;;;16.45;72.07;97023.41;29395;213;63015;-70
2021/07/23 01:51:01;;;;;;;0.40;0.40;;;;;;;16.46;71.75;97024.22;29395;299;63005;-70
2021/07/23 01:51:32;;;;;;;0.35;0.35;;;;;;;16.47;71.71;97032.09;29395;237;63009;-64
2021/07/23 01:52:04;;;;;;;0.40;0.40;;;;;;;16.48;71.68;97022.75;29394;214;64009;-63
2021/07/23 01:52:35;;;;;;;0.40;0.40;;;;;;;16.50;71.58;97025.16;29395;222;63009;-64
2021/07/23 01:53:07;;;;;;;0.40;0.40;;;;;;;16.51;71.54;97026.78;29395;234;63004;-70
2021/07/23 01:53:38;;;;;;;0.40;0.40;;;;;;;16.54;71.54;97031.59;29394;223;64013;-65
2021/07/23 01:54:09;;;;;;;0.40;0.40;;;;;;;16.54;71.44;97026.94;29395;210;63004;-65
2021/07/23 01:54:40;;;;;;;0.40;0.40;;;;;;;16.56;71.15;97023.84;29395;197;63008;-70
2021/07/23 01:55:12;;;;;;;0.40;0.40;;;;;;;16.57;71.53;97022.72;29395;379;63004;-70
2021/07/23 01:55:44;;;;;;;0.40;0.40;;;;;;;16.56;71.23;97030.13;29395;343;63009;-63
2021/07/23 01:56:15;;;;;;;0.40;0.40;;;;;;;16.54;71.09;97029.66;29395;219;63005;-65
2021/07/23 01:56:47;;;;;;;0.40;0.40;;;;;;;16.55;71.61;97023.06;29395;207;63009;-66
2021/07/23 01:57:18;;;;;;;0.40;0.40;;;;;;;16.54;71.58;97021.44;29395;277;63005;-71
2021/07/23 01:57:49;;;;;;;0.50;0.50;;;;;;;16.55;71.34;97027.72;29395;197;63009;-70
2021/07/23 01:58:21;;;;;;;0.40;0.40;;;;;;;16.54;71.42;97015.97;29395;323;63005;-70
2021/07/23 01:58:56;;;;;;;0.40;0.40;;;;;;;16.54;71.45;97021.44;29394;314;64013;-64
2021/07/23 01:59:28;;;;;;;0.40;0.40;;;;;;;16.54;71.41;97024.19;29394;199;64009;-65
2021/07/23 02:00:03;;;;;;;0.45;0.45;;;;;;;16.54;71.50;97021.44;29395;206;63009;-69
2021/07/23 02:00:35;;;;;;;0.40;0.40;;;;;;;16.54;71.40;97017.91;29395;278;63004;-70
2021/07/23 02:01:06;;;;;;;0.57;0.57;;;;;;;16.55;71.40;97023.06;29395;225;63009;-70
2021/07/23 02:01:37;;;;;;;0.40;0.40;;;;;;;16.55;71.51;97023.06;29395;216;63008;-70
2021/07/23 02:02:09;;;;;;;0.40;0.40;;;;;;;16.55;71.53;97020.31;29395;266;63008;-65
2021/07/23 02:02:43;;;;;;;0.40;0.40;;;;;;;16.55;71.54;97023.06;29395;205;63004;-70
2021/07/23 02:03:14;;;;;;;0.40;0.40;;;;;;;16.55;71.61;97027.72;29395;222;63009;-65
2021/07/23 02:03:45;;;;;;;0.40;0.40;;;;;;;16.56;71.48;97018.38;29395;301;63005;-66
2021/07/23 02:04:16;;;;;;;0.40;0.40;;;;;;;16.55;71.34;97023.06;29395;311;63009;-65
2021/07/23 02:04:47;;;;;;;0.40;0.40;;;;;;;16.56;71.44;97029.34;29394;265;64009;-70
2021/07/23 02:05:19;;;;;;;0.40;0.40;;;;;;;16.56;71.35;97019.19;29395;266;63009;-70
2021/07/23 02:05:50;;;;;;;0.40;0.40;;;;;;;16.57;71.17;97026.28;29395;227;63005;-70
2021/07/23 02:06:21;;;;;;;0.40;0.40;;;;;;;16.58;71.51;97027.06;29395;231;63009;-70
2021/07/23 02:06:57;;;;;;;0.40;0.40;;;;;;;16.55;71.47;97017.56;29395;197;63005;-64
2021/07/23 02:07:28;;;;;;;0.40;0.40;;;;;;;16.55;71.54;97028.53;29395;237;63009;-70
2021/07/23 02:08:02;;;;;;;0.40;0.40;;;;;;;16.54;71.54;97021.44;29395;211;63004;-70
2021/07/23 02:08:33;;;;;;;0.40;0.40;;;;;;;16.53;71.63;97024.50;29395;228;63009;-70
2021/07/23 02:09:04;;;;;;;0.40;0.40;;;;;;;16.52;71.62;97020.97;29394;197;64009;-70
2021/07/23 02:09:36;;;;;;;0.40;0.40;;;;;;;16.51;71.63;97013.87;29394;277;64013;-64
2021/07/23 02:10:09;;;;;;;0.40;0.40;;;;;;;16.52;71.70;97012.75;29395;229;63004;-63
2021/07/23 02:10:40;;;;;;;0.50;0.50;;;;;;;16.52;71.48;97022.91;29395;232;63009;-70
2021/07/23 02:11:11;;;;;;;0.40;0.40;;;;;;;16.50;71.64;97020.50;29395;239;63005;-65
2021/07/23 02:11:43;;;;;;;0.40;0.40;;;;;;;16.50;71.64;97015.00;29395;203;63026;-66
2021/07/23 02:12:14;;;;;;;0.30;0.30;;;;;;;16.52;71.65;97022.91;29395;227;63005;-70
2021/07/23 02:12:45;;;;;;;0.40;0.40;;;;;;;16.47;71.60;97015.66;29395;214;63009;-64
2021/07/23 02:13:16;;;;;;;0.40;0.40;;;;;;;16.50;71.62;97023.22;29395;312;63005;-65
2021/07/23 02:13:50;;;;;;;0.40;0.40;;;;;;;16.49;71.64;97016.16;29394;259;64013;-70
2021/07/23 02:14:22;;;;;;;0.40;0.40;;;;;;;16.47;72.07;97018.41;29394;215;64009;-65
2021/07/23 02:14:54;;;;;;;0.40;0.40;;;;;;;16.45;71.99;97020.66;29395;363;63009;-70
2021/07/23 02:15:25;;;;;;;0.40;0.40;;;;;;;16.43;72.22;97015.50;29395;279;63004;-64
2021/07/23 02:15:56;;;;;;;0.40;0.40;;;;;;;16.42;72.29;97024.06;29395;356;63009;-70
2021/07/23 02:16:27;;;;;;;0.40;0.40;;;;;;;16.41;72.27;97017.78;29395;206;63004;-66
2021/07/23 02:17:02;;;;;;;0.40;0.40;;;;;;;16.40;72.16;97015.34;29395;276;63009;-64
2021/07/23 02:17:33;;;;;;;0.40;0.40;;;;;;;16.40;72.20;97015.34;29394;276;64008;-70
2021/07/23 02:18:04;;;;;;;0.40;0.40;;;;;;;16.40;72.23;97021.63;29395;304;63009;-71
2021/07/23 02:18:36;;;;;;;0.40;0.40;;;;;;;16.41;72.12;97022.44;29395;244;63012;-69
2021/07/23 02:19:07;;;;;;;0.40;0.40;;;;;;;16.39;72.02;97009.06;29395;312;63009;-69
2021/07/23 02:19:39;;;;;;;0.40;0.40;;;;;;;16.39;72.16;97016.50;29394;204;64009;-64
2021/07/23 02:20:12;;;;;;;0.40;0.40;;;;;;;16.38;72.23;97017.62;29395;212;63009;-71
2021/07/23 02:20:43;;;;;;;0.40;0.40;;;;;;;16.36;72.17;97020.69;29395;239;63005;-69
2021/07/23 02:21:18;;;;;;;0.40;0.40;;;;;;;16.36;72.28;97015.22;29395;223;63009;-70
2021/07/23 02:21:49;;;;;;;0.40;0.40;;;;;;;16.36;72.21;97019.88;29395;245;63005;-71
2021/07/23 02:22:21;;;;;;;0.40;0.40;;;;;;;16.36;72.47;97014.41;29395;251;63009;-70
2021/07/23 02:22:53;;;;;;;0.40;0.40;;;;;;;16.36;72.14;97022.63;29395;272;63004;-65
2021/07/23 02:23:24;;;;;;;0.30;0.30;;;;;;;16.34;72.52;97005.72;29395;215;63009;-71
2021/07/23 02:23:56;;;;;;;0.40;0.40;;;;;;;16.33;72.47;97010.38;29395;215;63003;-71
2021/07/23 02:24:27;;;;;;;0.40;0.40;;;;;;;16.31;72.59;97014.56;29395;202;63009;-70
2021/07/23 02:24:58;;;;;;;0.40;0.40;;;;;;;16.29;72.49;97014.09;29394;217;64008;-64
2021/07/23 02:25:31;;;;;;;0.40;0.40;;;;;;;16.28;72.61;97012.53;29395;209;63008;-64
2021/07/23 02:26:03;;;;;;;0.40;0.40;;;;;;;16.28;72.52;97016.06;29395;275;63005;-71
2021/07/23 02:26:35;;;;;;;0.40;0.40;;;;;;;16.29;72.44;97008.63;29395;210;63009;-70
2021/07/23 02:27:10;;;;;;;0.40;0.40;;;;;;;16.30;72.43;97010.22;29395;199;63005;-66
2021/07/23 02:27:41;;;;;;;0.40;0.40;;;;;;;16.30;72.25;97016.50;29395;341;63009;-70
2021/07/23 02:28:12;;;;;;;0.40;0.40;;;;;;;16.32;72.59;97013.44;29395;204;63005;-70
2021/07/23 02:28:46;;;;;;;0.40;0.40;;;;;;;16.30;72.56;97010.22;29394;210;64013;-70
2021/07/23 02:29:17;;;;;;;0.40;0.40;;;;;;;16.27;73.29;97011.72;29395;212;63017;-65
2021/07/23 02:29:48;;;;;;;0.40;0.40;;;;;;;16.23;73.45;97012.69;29395;259;63009;-70
2021/07/23 02:30:19;;;;;;;0.40;0.40;;;;;;;16.19;74.02;97009.00;29395;309;63004;-65
2021/07/23 02:30:50;;;;;;;0.40;0.40;;;;;;;16.14;74.03;97012.69;29395;210;63009;-70
2021/07/23 02:31:22;;;;;;;0.47;0.47;;;;;;;16.11;74.14;97012.53;29395;206;63019;-70
2021/07/23 02:31:53;;;;;;;3.33;3.22;;;;;;;16.09;73.98;97010.94;29395;213;63008;-70
2021/07/23 02:32:25;;;;;;;0.40;0.40;;;;;;;16.09;73.89;97010.94;29395;212;63004;-70